Gillette, WY

3:28 PM MDT on June 28, 2017 (GMT -0600)
Gillette | | Change Station
Active Advisory: Severe Thunderstorm Warning

Elev 4691 ft 44.29 °N, 105.55 °W | Updated 3 minutes ago

Clear
Clear
77.7 °F
Feels Like 79 °F
N
3.7
Wind Variable Wind from NE
Gusts 6.2 mph

Today
High -- | Low -- °F
--% Chance of Precip.
Yesterday
High -- | Low -- °F
Precip. -- in
Pressure 29.74 in
Visibility 10.0 miles
Clouds Clear
Heat Index 79 °F
Dew Point 56 °F
Humidity 46%
Rainfall 0.07 in
Snow Depth Not available.
5:20 AM 8:50 PM
Waxing Crescent, 28% visible
SPECI KGCC 282125Z AUTO 11009G14KT 10SM CLR 26/09 A2974 RMK AO2 LTG DSNT NE AND SE TSE2059 T02610094 $
Pressure 29.74 in
Visibility 10.0 miles
Clouds Clear
Heat Index 79 °F
Dew Point 56 °F
Humidity 46%
Rainfall 0.07 in
Snow Depth Not available.
5:20 AM 8:50 PM
Waxing Crescent, 28% visible
SPECI KGCC 282125Z AUTO 11009G14KT 10SM CLR 26/09 A2974 RMK AO2 LTG DSNT NE AND SE TSE2059 T02610094 $

Get Your Daily Forecast Email!

Thanks for signing up!

Be on the lookout for a verification email in your inbox.

You'll start receiving severe weather alerts in your inbox..

×

10-Day Weather Forecast

Almanac

Astronomy

Jun. 28, 2017 Rise Set
Actual Time
Civil Twilight
Nautical Twilight
Astronomical Twilight
Moon
Length of Visible Light
Length of Day
Tomorrow will be .
, % of the Moon is Illuminated

Today's Extremes

State Highs State Lows

Community

WunderPhotos

Category 6

Welcome to Category 6. This is the collective home for Weather Underground's featured writeups by Dr. Jeff Masters (right), Bob Henson (left), Chris Burt, and other regular contributors.

Nearby

Air Quality

  Air Quality AQ Index Pollutant
Not available.

Snow Depth

Station Depth Elevation

Earthquake Activity

City Distance Mag. Time & Date
Minimum magnitude displayed is 2.5.

Coastal Water Temperatures

Place Temperature

Stations

Nearby Weather Stations

Station Location Temp. Windchill Dew Point Humidity Wind Precip. Elev Updated Type
                   

Watches & Warnings

Severe Thunderstorm Warning
Issued: 3:26 PM MDT Jun. 28, 2017 – National Weather Service

... The Severe Thunderstorm Warning for northeastern Campbell County
is cancelled...

the severe thunderstorm which prompted the warning has moved out of
the warned area. Therefore the warning has been cancelled.

Lat... Lon 4495 10508 4496 10467 4453 10476 4455 10499
      4457 10508
time... Mot... loc 2124z 278deg 24kt 4473 10496